Nearby METAR Reports

 

KAVP - Avoca/Wilkes B., Pennsylvania, USA
Distance from station: N 16mi, 25km
Updated: 05/08/2021 8:54pm
Overcast
Overcast
 Wind from calm
Wind: Calm
Temperature: 46°F , 8°C
Dew Point: 39°F , 4°C
Humidity: 76%
Barometer: 29.98 inHg , 1015.2 hPa
Clouds: Overcast
Visibility: 10 miles , 16 km
Cloud details: Partly cloudy 3900 ft
Mostly cloudy 4800 ft
Overcast 5500 ft
2021/05/09 00:54 KAVP 090054Z 00000KT 10SM SCT039 BKN048 OVC055 08/04 A2998 RMK AO2 RAB2357E25 SLP154 P0001 T00830044
KMPO - Mt. Pocono, Pennsylvania, USA
Distance from station: E 20mi, 33km
Updated: 05/08/2021 8:53pm
Mostly cloudy
Mostly cloudy
 Wind from WNW
Wind: WNW 16 mph , 26 km/h, Gust: 23 mph , 37 km/h
Temperature: 43°F , 6°C
Wind Chill: 35°F , 2°C
Dew Point: 34°F , 1°C
Humidity: 71%
Barometer: 29.94 inHg , 1013.9 hPa
Clouds: Mostly cloudy
Visibility: 10 miles , 16 km
Cloud details: Mostly cloudy 6000 ft
2021/05/09 00:53 KMPO 090053Z AUTO 29014G20KT 10SM BKN060 06/01 A2994 RMK AO2 SLP151 T00610011 $
 
KABE - Allentown, Pennsylvania, USA
Distance from station: SSE 36mi, 58km
Updated: 05/08/2021 8:51pm
Clear
Clear
 Wind from W
Wind: W 5 mph , 7 km/h
Temperature: 46°F , 8°C
Wind Chill: 44°F , 7°C
Dew Point: 39°F , 4°C
Humidity: 76%
Barometer: 29.97 inHg , 1014.9 hPa
Clouds: Clear
Visibility: 10 miles , 16 km
2021/05/09 00:51 KABE 090051Z 28004KT 10SM CLR 08/04 A2997 RMK AO2 SLP152 T00830039 $
KXLL - Allentown Queen, Pennsylvania, USA
Distance from station: SSE 41mi, 65km
Updated: 05/08/2021 9:15pm
Partly cloudy
Partly cloudy
 Wind from W
Wind: W 7 mph , 11 km/h
Temperature: 48°F , 9°C
Wind Chill: 45°F , 7°C
Dew Point: 41°F , 5°C
Humidity: 76%
Barometer: 30.01 inHg , 1016.3 hPa
Clouds: Partly cloudy
Visibility: 10 miles , 16 km
Cloud details: Partly cloudy 6000 ft
2021/05/09 01:15 KXLL 090115Z AUTO 26006KT 10SM SCT060 09/05 A3001 RMK AO2